METAR Data
IDs: Format: Raw Decoded Include TAF

Data at: 1749 UTC 16 Oct 2021

KHRX 161735Z AUTO 24010KT 7SM CLR 18/00 A3045 RMK AO2 T01750000
KHRX 161715Z AUTO 26013KT 7SM CLR 17/00 A3046 RMK AO2 T01710001
KHRX 161655Z AUTO 25012G18KT 10SM CLR 17/00 A3046 RMK AO2 T01660000
KHRX 161635Z AUTO 26012G17KT 7SM CLR 16/00 A3046 RMK AO2 T01580004
KHRX 161615Z AUTO 23010KT 7SM CLR 15/01 A3046 RMK AO2 T01480005
KHRX 161555Z AUTO 22011KT 7SM CLR 14/01 A3046 RMK AO2 T01350007
KHRX 161535Z AUTO 24010KT 7SM CLR 13/01 A3046 RMK AO2 T01250010
KHRX 161515Z AUTO 24010KT 7SM CLR 11/01 A3047 RMK AO2 T01080011
KHRX 161455Z AUTO 27007KT 7SM CLR 10/02 A3047 RMK AO2 T00970016
KHRX 161435Z AUTO 26004KT 7SM CLR 07/02 A3047 RMK AO2 T00680022
KHRX 161415Z AUTO 28003KT 7SM CLR 05/01 A3047 RMK AO2 T00480013
KHRX 161355Z AUTO 28003KT 7SM CLR 02/00 A3046 RMK AO2 T00240000
KHRX 161335Z AUTO 29004KT 7SM CLR 01/M01 A3045 RMK AO2 T00121010
KHRX 161315Z AUTO 27005KT 7SM CLR 00/M02 A3044 RMK AO2 T00011019
KHRX 161255Z AUTO 27004KT 7SM CLR 00/M02 A3044 RMK AO2 T00031019
KHRX 161235Z AUTO 26004KT 7SM CLR 00/M02 A3044 RMK AO2 T00021019
KHRX 161215Z AUTO 27005KT 7SM CLR 00/M02 A3043 RMK AO2 T00031020
KHRX 161155Z AUTO 28005KT 7SM CLR 00/M02 A3042 RMK AO2 T00001021 10028 20000
KHRX 161135Z AUTO 29005KT 10SM CLR 01/M02 A3042 RMK AO2 T00061018
KHRX 161115Z AUTO 29004KT 10SM CLR 00/M02 A3042 RMK AO2 T00041018
KHRX 161055Z AUTO 28004KT 10SM CLR 01/M02 A3042 RMK AO2 T00051018
KHRX 161035Z AUTO 29004KT 10SM CLR 00/M02 A3041 RMK AO2 T00021020
KHRX 161015Z AUTO 29005KT 10SM CLR 01/M01 A3041 RMK AO2 T00121014
KHRX 160955Z AUTO 28005KT 7SM CLR 01/M02 A3041 RMK AO2 T00051017
KHRX 160935Z AUTO 28006KT 10SM CLR 01/M02 A3040 RMK AO2 T00091017
KHRX 160915Z AUTO 00000KT 10SM CLR 02/M01 A3040 RMK AO2 T00151012
KHRX 160855Z AUTO 00000KT 10SM CLR 01/M01 A3041 RMK AO2 T00141013
KHRX 160835Z AUTO 00000KT 7SM CLR 01/M01 A3041 RMK AO2 T00121012
KHRX 160815Z AUTO 28005KT 10SM CLR 01/M01 A3041 RMK AO2 T00101014
KHRX 160755Z AUTO 28006KT 7SM CLR 01/M01 A3041 RMK AO2 T00101012
KHRX 160735Z AUTO 27006KT 7SM CLR 01/M01 A3041 RMK AO2 T00141008
KHRX 160715Z AUTO 28005KT 7SM CLR 03/00 A3041 RMK AO2 T00281005
KHRX 160655Z AUTO 28003KT 10SM CLR 03/00 A3041 RMK AO2 T00251002
KHRX 160635Z AUTO 29005KT 7SM CLR 02/00 A3041 RMK AO2 T00201003
KHRX 160615Z AUTO 27004KT 10SM CLR 03/00 A3040 RMK AO2 T00251003
KHRX 160555Z AUTO 27004KT 10SM CLR 03/00 A3040 RMK AO2 T00251003 10142 20023 401710023
KHRX 160535Z AUTO 26004KT 10SM CLR 03/00 A3040 RMK AO2 T00261005
KHRX 160515Z AUTO 00000KT 10SM CLR 03/M01 A3039 RMK AO2 T00311010
KHRX 160455Z AUTO 00000KT 10SM CLR 05/00 A3039 RMK AO2 T00491002
KHRX 160435Z AUTO 00000KT 10SM CLR 06/M01 A3038 RMK AO2 T00571006
KHRX 160415Z AUTO 00000KT 10SM CLR 06/00 A3038 RMK AO2 T00581005
KHRX 160355Z AUTO 00000KT 10SM CLR 06/M01 A3038 RMK AO2 T00631007
KHRX 160335Z AUTO 00000KT 10SM CLR 06/00 A3037 RMK AO2 T00561004
KHRX 160315Z AUTO 00000KT 10SM CLR 07/00 A3037 RMK AO2 T00721005
KHRX 160255Z AUTO 00000KT 10SM CLR 08/00 A3037 RMK AO2 T00781005
KHRX 160235Z AUTO 00000KT 10SM CLR 08/00 A3036 RMK AO2 T00771004
KHRX 160215Z AUTO 15003KT 10SM CLR 09/M01 A3035 RMK AO2 T00901006
KHRX 160155Z AUTO 10004KT 7SM CLR 10/M01 A3035 RMK AO2 T00961009
KHRX 160135Z AUTO 08004KT 7SM CLR 09/M01 A3033 RMK AO2 T00921006
KHRX 160115Z AUTO 07003KT 10SM CLR 10/00 A3033 RMK AO2 T00951003
KHRX 160055Z AUTO 08003KT 7SM CLR 11/00 A3033 RMK AO2 T01091003
KHRX 160035Z AUTO 00000KT 10SM CLR 11/00 A3032 RMK AO2 T01111003
KHRX 160015Z AUTO 07004KT 7SM CLR 13/M01 A3031 RMK AO2 T01311015
KHRX 152355Z AUTO 02005KT 7SM CLR 14/M01 A3031 RMK AO2 T01441015 10171 20144
KHRX 152335Z AUTO 05007KT 7SM CLR 16/M02 A3031 RMK AO2 T01551022
KHRX 152315Z AUTO 01007KT 5SM HZ CLR 16/M02 A3031 RMK AO2 T01601020
KHRX 152255Z AUTO 03007G10KT 10SM CLR 16/M02 A3030 RMK AO2 T01631017
KHRX 152235Z AUTO 03010G16KT 7SM CLR 17/M02 A3030 RMK AO2 T01651018
KHRX 152215Z AUTO 04009G15KT 7SM CLR 17/M02 A3030 RMK AO2 T01691017
KHRX 152155Z AUTO 03013G16KT 10SM CLR 17/M01 A3030 RMK AO2 T01681011
KHRX 152135Z AUTO 03012G19KT 7SM CLR 17/M01 A3030 RMK AO2 T01691013
KHRX 152115Z AUTO 03008G18KT 7SM CLR 17/M01 A3029 RMK AO2 T01711013
KHRX 152055Z AUTO 03013G22KT 7SM CLR 17/M01 A3029 RMK AO2 T01701008
KHRX 152035Z AUTO 04008KT 360V060 10SM CLR 17/00 A3029 RMK AO2 T01691005
KHRX 152015Z AUTO 02015KT 10SM CLR 17/M01 A3028 RMK AO2 T01681007
KHRX 151955Z AUTO 02018G23KT 7SM CLR 17/00 A3027 RMK AO2 T01670002
KHRX 151935Z AUTO 03015G21KT 7SM CLR 16/00 A3028 RMK AO2 T01610003
KHRX 151915Z AUTO 01013G22KT 7SM CLR 16/01 A3029 RMK AO2 T01610008
KHRX 151855Z AUTO 03012G18KT 7SM CLR 16/01 A3029 RMK AO2 T01590014
KHRX 151835Z AUTO 03015G22KT 7SM CLR 16/02 A3030 RMK AO2 T01560018
KHRX 151815Z AUTO 04012G20KT 7SM CLR 15/02 A3031 RMK AO2 T01510016
KHRX 151755Z AUTO 03016G19KT 7SM CLR 15/02 A3031 RMK AO2 T01510019 10151 20034
KHRX 151735Z AUTO 04016G20KT 7SM CLR 15/02 A3031 RMK AO2 T01450019
KHRX 151715Z AUTO 03013G20KT 7SM CLR 14/02 A3031 RMK AO2 T01360024
KHRX 151655Z AUTO 04015KT 7SM CLR 13/02 A3031 RMK AO2 T01320024
KHRX 151635Z AUTO 04015KT 7SM CLR 13/01 A3031 RMK AO2 T01290011
KHRX 151615Z AUTO 05011G15KT 10SM CLR 12/01 A3031 RMK AO2 T01180011
KHRX 151555Z AUTO 05006G16KT 10SM CLR 11/01 A3031 RMK AO2 T01060007
KHRX 151535Z AUTO 05009KT 7SM CLR 10/01 A3031 RMK AO2 T01000006
KHRX 151515Z AUTO 05011KT 7SM CLR 10/01 A3029 RMK AO2 T00970007
KHRX 151455Z AUTO 03010G15KT 7SM CLR 09/01 A3029 RMK AO2 T00870014
KHRX 151435Z AUTO 03010KT 7SM CLR 08/02 A3028 RMK AO2 T00780016
KHRX 151415Z AUTO 03007KT 7SM CLR 06/02 A3026 RMK AO2 T00630018
KHRX 151355Z AUTO 03007KT 7SM CLR 05/01 A3026 RMK AO2 T00530010
KHRX 151335Z AUTO 01010KT 7SM CLR 04/01 A3024 RMK AO2 T00410010
KHRX 151315Z AUTO 01008KT 7SM CLR 04/01 A3022 RMK AO2 T00370010
KHRX 151255Z AUTO 01009KT 7SM CLR 04/01 A3022 RMK AO2 T00350010
KHRX 151235Z AUTO 01007KT 10SM CLR 04/01 A3021 RMK AO2 T00350010
KHRX 151215Z AUTO 01006KT 10SM CLR 04/01 A3020 RMK AO2 T00360013
KHRX 151155Z AUTO 01008KT 10SM CLR 04/02 A3019 RMK AO2 T00380020 10078 20034
KHRX 151135Z AUTO 36007KT 7SM CLR 04/02 A3017 RMK AO2 T00350017
KHRX 151115Z AUTO 35005KT 10SM CLR 04/02 A3016 RMK AO2 T00400020
KHRX 151055Z AUTO 35005KT 10SM CLR 04/02 A3014 RMK AO2 T00390018
KHRX 151035Z AUTO 35004KT 10SM CLR 05/02 A3013 RMK AO2 T00450023
KHRX 151015Z AUTO 36006KT 10SM CLR 05/03 A3011 RMK AO2 T00480026
KHRX 150955Z AUTO 36007KT 10SM CLR 05/02 A3010 RMK AO2 T00460024
KHRX 150935Z AUTO 01006KT 10SM CLR 06/03 A3009 RMK AO2 T00550030
KHRX 150915Z AUTO 02008KT 10SM CLR 06/03 A3008 RMK AO2 T00560030
KHRX 150855Z AUTO 01008KT 10SM CLR 06/03 A3008 RMK AO2 T00630032
KHRX 150835Z AUTO 03009KT 10SM CLR 07/03 A3007 RMK AO2 T00670033
KHRX 150815Z AUTO 04009KT 10SM CLR 07/04 A3007 RMK AO2 T00710035
KHRX 150755Z AUTO 04006KT 10SM CLR 07/03 A3006 RMK AO2 T00670031
KHRX 150735Z AUTO 04005KT 10SM CLR 07/03 A3006 RMK AO2 T00680031
KHRX 150715Z AUTO 01008KT 7SM CLR 07/03 A3004 RMK AO2 T00650028
KHRX 150655Z AUTO 01009KT 10SM CLR 06/02 A3004 RMK AO2 T00620023
KHRX 150635Z AUTO 01005KT 10SM CLR 06/02 A3003 RMK AO2 T00640017
KHRX 150615Z AUTO 00000KT 10SM CLR 07/02 A3003 RMK AO2 T00740020
KHRX 150555Z AUTO 02003KT 10SM CLR 08/02 A3003 RMK AO2 T00780021 10203 20075 402470030